Convent, Louisiana
Current Conditions -  °F | °C
As of 6:35 AM on Friday 19 Dec 2014 (Local Time) from KL38 Reporting Station
Overcast Overcast  
Wind Chill: 55°   Ceiling: 1000
Heat Index: 55°   Visibility: 10mi
Dew Point: 55°   Wind: 5mph
Humidity: 100%   Direction: 10°N
Pressure: 30.12"   Gusts: NA
Location:  30.02°N, 90.83°W
Report Text: KL38 191235Z AUTO 01004KT 10SM SCT006 OVC010 13/13 A3012 RMK AO2 LTG DSNT N AND NE P0002 T01250125
Loading
Personal Weather Stations






























Interactive Weather Map New forecast layout! Learn more

10-Day Weather Forecast

Advertisements
Track Severe Weather on mobile